Time;durP1;ratioP1;P1;durP2;ratioP2;P2;SDS_P1;SDS_P2;PMS_P1;PMS_P2;Temp;Humidity;BMP_temperature;BMP_pressure;BME280_temperature;BME280_humidity;BME280_pressure;Samples;Min_cycle;Max_cycle;Signal;HPM_P1;HPM_P2
2021/07/26 00:00:05;;;;;;;;;;;;;;;26.30;61.08;100679.09;5035462;28;97165;-78
2021/07/26 00:02:31;;;;;;;;;;;;;;;26.36;60.52;100680.31;5030461;28;97602;-78
2021/07/26 00:04:57;;;;;;;;;;;;;;;26.32;60.86;100674.34;5033164;28;102076;-79
2021/07/26 00:07:24;;;;;;;;;;;;;;;26.32;60.49;100673.53;5035162;28;98874;-79
2021/07/26 00:09:50;;;;;;;;;;;;;;;26.30;60.19;100675.53;5035052;28;97068;-78
2021/07/26 00:12:16;;;;;;;;;;;;;;;26.28;60.46;100678.38;5034659;28;96838;-78
2021/07/26 00:14:44;;;;;;;;;;;;;;;26.17;60.78;100678.63;5034363;28;100272;-78
2021/07/26 00:17:10;;;;;;;;;;;;;;;26.22;60.75;100670.84;5034681;28;97853;-79
2021/07/26 00:19:36;;;;;;;;;;;;;;;26.30;60.52;100670.13;5034852;28;97605;-79
2021/07/26 00:22:03;;;;;;;;;;;;;;;26.27;61.03;100670.41;5034117;28;96859;-78
2021/07/26 00:24:29;;;;;;;;;;;;;;;26.28;60.78;100664.84;5035130;28;99224;-78
2021/07/26 00:26:55;;;;;;;;;;;;;;;26.19;60.56;100663.03;5035156;28;99324;-77
2021/07/26 00:29:22;;;;;;;;;;;;;;;26.25;60.77;100658.91;5032893;28;97582;-79
2021/07/26 00:31:49;;;;;;;;;;;;;;;26.24;60.86;100658.06;5032627;28;98646;-79
2021/07/26 00:34:18;;;;;;;;;;;;;;;26.20;61.20;100653.91;5042186;28;99253;-79
2021/07/26 00:36:46;;;;;;;;;;;;;;;25.80;62.66;100660.66;5033443;28;99909;-79
2021/07/26 00:39:13;;;;;;;;;;;;;;;25.35;64.16;100654.41;5038282;28;97004;-79
2021/07/26 00:41:40;;;;;;;;;;;;;;;25.04;65.26;100651.16;5043611;27;97643;-79
2021/07/26 00:44:07;;;;;;;;;;;;;;;25.35;64.37;100659.81;5050244;28;100164;-79
2021/07/26 00:46:33;;;;;;;;;;;;;;;25.60;63.01;100656.41;5036086;28;97961;-80
2021/07/26 00:49:03;;;;;;;;;;;;;;;25.82;62.10;100656.97;5035123;28;97525;-79
2021/07/26 00:51:29;;;;;;;;;;;;;;;25.95;61.47;100660.97;5033295;28;99542;-79
2021/07/26 00:53:56;;;;;;;;;;;;;;;26.10;61.16;100658.59;5035230;28;99040;-79
2021/07/26 00:56:22;;;;;;;;;;;;;;;26.25;60.78;100659.75;5033343;28;101423;-79
2021/07/26 00:58:49;;;;;;;;;;;;;;;26.24;60.29;100665.28;5034933;28;96781;-79
2021/07/26 01:01:17;;;;;;;;;;;;;;;26.24;60.67;100668.88;5030018;28;98126;-79
2021/07/26 01:03:44;;;;;;;;;;;;;;;26.12;60.78;100662.00;5034842;28;98920;-77
2021/07/26 01:06:12;;;;;;;;;;;;;;;26.02;61.19;100663.91;5032897;28;98985;-77
2021/07/26 01:08:38;;;;;;;;;;;;;;;26.07;61.38;100664.28;5033231;28;96917;-77
2021/07/26 01:11:05;;;;;;;;;;;;;;;26.04;61.26;100660.06;5038583;28;96967;-77
2021/07/26 01:13:32;;;;;;;;;;;;;;;26.15;60.87;100667.94;5026226;28;98847;-77
2021/07/26 01:15:58;;;;;;;;;;;;;;;26.18;60.51;100664.06;5033168;28;98948;-77
2021/07/26 01:18:25;;;;;;;;;;;;;;;26.14;60.98;100665.38;5031335;28;97266;-78
2021/07/26 01:20:53;;;;;;;;;;;;;;;26.17;60.36;100662.38;5033700;28;97713;-77
2021/07/26 01:23:20;;;;;;;;;;;;;;;26.15;60.88;100656.25;5030900;28;100066;-77
2021/07/26 01:25:46;;;;;;;;;;;;;;;26.19;60.65;100671.16;5033180;28;98815;-78
2021/07/26 01:28:14;;;;;;;;;;;;;;;26.24;60.69;100677.00;5033183;28;96878;-78
2021/07/26 01:30:40;;;;;;;;;;;;;;;26.20;60.41;100673.72;5033633;28;97728;-78
2021/07/26 01:33:08;;;;;;;;;;;;;;;26.13;61.09;100680.75;5029509;28;99182;-77
2021/07/26 01:35:34;;;;;;;;;;;;;;;26.07;60.75;100670.56;5034160;28;98888;-78
2021/07/26 01:38:02;;;;;;;;;;;;;;;26.09;60.94;100670.41;5033732;28;96851;-79
2021/07/26 01:40:28;;;;;;;;;;;;;;;26.11;60.79;100661.13;5031260;28;96867;-78
2021/07/26 01:43:01;;;;;;;;;;;;;;;26.12;60.45;100667.41;5032295;28;99160;-78
2021/07/26 01:45:27;;;;;;;;;;;;;;;26.09;59.96;100665.00;5033303;28;99273;-78
2021/07/26 01:47:56;;;;;;;;;;;;;;;26.14;60.05;100659.94;5025292;28;96736;-79
2021/07/26 01:50:23;;;;;;;;;;;;;;;25.91;60.42;100659.59;5030778;28;97262;-77
2021/07/26 01:52:49;;;;;;;;;;;;;;;25.85;60.09;100659.38;5032390;28;98980;-78
2021/07/26 01:55:17;;;;;;;;;;;;;;;25.96;59.96;100673.50;5034260;28;99533;-78
2021/07/26 01:57:43;;;;;;;;;;;;;;;25.95;59.59;100671.81;5034144;28;96770;-78
2021/07/26 02:00:10;;;;;;;;;;;;;;;25.90;59.72;100678.69;5034334;28;97275;-77
2021/07/26 02:02:37;;;;;;;;;;;;;;;25.86;59.79;100680.88;5030403;28;98995;-77
2021/07/26 02:05:03;;;;;;;;;;;;;;;25.98;59.76;100681.50;5034456;28;99264;-77
2021/07/26 02:07:30;;;;;;;;;;;;;;;25.97;59.79;100677.94;5030206;28;97876;-77
2021/07/26 02:09:56;;;;;;;;;;;;;;;25.96;59.53;100673.50;5033548;28;96950;-78
2021/07/26 02:12:24;;;;;;;;;;;;;;;25.95;59.47;100679.06;5030491;28;98462;-78
2021/07/26 02:14:50;;;;;;;;;;;;;;;25.87;59.72;100673.56;5034389;28;101003;-78
2021/07/26 02:17:16;;;;;;;;;;;;;;;25.90;60.05;100676.00;5032375;28;97143;-79
2021/07/26 02:19:43;;;;;;;;;;;;;;;25.99;59.70;100669.66;5034850;28;96797;-79
2021/07/26 02:22:09;;;;;;;;;;;;;;;26.00;59.02;100674.03;5025052;28;98101;-78
2021/07/26 02:24:35;;;;;;;;;;;;;;;25.93;59.33;100673.81;5034784;28;100601;-79
2021/07/26 02:27:04;;;;;;;;;;;;;;;25.88;59.81;100670.72;5032475;28;97771;-78
2021/07/26 02:29:31;;;;;;;;;;;;;;;25.85;59.50;100672.91;5034653;28;96902;-78
2021/07/26 02:31:58;;;;;;;;;;;;;;;25.90;59.51;100662.44;5032424;28;99284;-79
2021/07/26 02:34:24;;;;;;;;;;;;;;;25.95;59.96;100662.84;5034901;28;99724;-77
2021/07/26 02:36:50;;;;;;;;;;;;;;;25.75;60.83;100657.56;5033165;28;97250;-77
2021/07/26 02:39:16;;;;;;;;;;;;;;;25.66;60.85;100660.38;5034890;28;97448;-78
2021/07/26 02:41:43;;;;;;;;;;;;;;;25.58;61.53;100658.44;5031454;28;98097;-77
2021/07/26 02:44:10;;;;;;;;;;;;;;;25.65;60.75;100656.81;5032113;28;103087;-78
2021/07/26 02:46:37;;;;;;;;;;;;;;;25.41;61.38;100662.75;5034302;28;96958;-78
2021/07/26 02:49:04;;;;;;;;;;;;;;;25.02;62.69;100658.56;5044653;28;96687;-77
2021/07/26 02:51:30;;;;;;;;;;;;;;;24.88;63.11;100659.84;5034321;28;98838;-78
2021/07/26 02:53:56;;;;;;;;;;;;;;;24.82;63.89;100655.03;5032807;28;99091;-78
2021/07/26 02:56:23;;;;;;;;;;;;;;;25.21;62.03;100652.19;5032028;28;96942;-77
2021/07/26 02:58:49;;;;;;;;;;;;;;;25.44;61.85;100647.22;5033948;28;96901;-78
2021/07/26 03:01:17;;;;;;;;;;;;;;;25.50;61.46;100649.31;5031260;28;97703;-78
2021/07/26 03:03:45;;;;;;;;;;;;;;;25.41;61.55;100656.50;5024409;28;99599;-77
2021/07/26 03:06:14;;;;;;;;;;;;;;;25.57;61.41;100654.00;5033829;28;96881;-78
2021/07/26 03:08:40;;;;;;;;;;;;;;;25.55;61.17;100660.53;5036552;28;97634;-78
2021/07/26 03:11:10;;;;;;;;;;;;;;;25.70;60.48;100667.16;5033504;28;98946;-78
2021/07/26 03:13:37;;;;;;;;;;;;;;;25.77;60.26;100661.00;5036135;28;99124;-77
2021/07/26 03:16:04;;;;;;;;;;;;;;;25.69;60.23;100660.91;5034055;28;97136;-78
2021/07/26 03:18:30;;;;;;;;;;;;;;;25.77;60.25;100663.69;5035486;28;97400;-78
2021/07/26 03:20:58;;;;;;;;;;;;;;;25.83;59.31;100674.91;5027856;28;98860;-77
2021/07/26 03:23:24;;;;;;;;;;;;;;;25.91;59.49;100675.00;5040748;28;97669;-77
2021/07/26 03:25:50;;;;;;;;;;;;;;;25.82;59.55;100692.16;5046824;28;97096;-78
2021/07/26 03:28:17;;;;;;;;;;;;;;;25.90;59.14;100690.38;5027947;28;96922;-79
2021/07/26 03:30:43;;;;;;;;;;;;;;;25.69;60.19;100692.53;5026145;28;97767;-78
2021/07/26 03:33:09;;;;;;;;;;;;;;;25.73;60.25;100681.22;5035065;28;98698;-78
2021/07/26 03:35:36;;;;;;;;;;;;;;;25.91;60.01;100688.53;5036855;28;97751;-78
2021/07/26 03:38:05;;;;;;;;;;;;;;;25.96;59.33;100688.91;5038468;28;97040;-77
2021/07/26 03:40:31;;;;;;;;;;;;;;;25.95;59.30;100687.19;5035397;28;98905;-79
2021/07/26 03:42:58;;;;;;;;;;;;;;;25.37;60.35;100680.31;5035167;28;99195;-77
2021/07/26 03:45:24;;;;;;;;;;;;;;;25.50;59.75;100687.19;5036379;28;96880;-78
2021/07/26 03:47:51;;;;;;;;;;;;;;;25.68;59.23;100691.66;5034417;28;96989;-78
2021/07/26 03:50:18;;;;;;;;;;;;;;;25.73;58.38;100689.34;5028897;28;98818;-77
2021/07/26 03:52:45;;;;;;;;;;;;;;;25.81;58.66;100691.28;5034366;28;99131;-78
2021/07/26 03:55:15;;;;;;;;;;;;;;;25.80;58.22;100684.16;5032152;28;96797;-78
2021/07/26 03:57:42;;;;;;;;;;;;;;;25.86;58.02;100688.16;5035525;28;97414;-78
2021/07/26 04:00:08;;;;;;;;;;;;;;;25.87;57.93;100695.22;5035324;28;99319;-78
2021/07/26 04:02:36;;;;;;;;;;;;;;;25.96;57.76;100687.06;5035131;28;99120;-78
2021/07/26 04:05:03;;;;;;;;;;;;;;;25.94;57.48;100688.19;5022543;28;97050;-78
2021/07/26 04:07:33;;;;;;;;;;;;;;;25.98;57.94;100692.31;5036302;28;98720;-78
2021/07/26 04:10:03;;;;;;;;;;;;;;;26.11;57.36;100701.75;5036150;28;98849;-80
2021/07/26 04:12:33;;;;;;;;;;;;;;;26.14;57.62;100701.44;5037532;28;99164;-77
2021/07/26 04:15:06;;;;;;;;;;;;;;;26.09;58.86;100708.31;5027276;28;96742;-77
2021/07/26 04:17:32;;;;;;;;;;;;;;;26.11;58.69;100711.72;5031076;28;96781;-78
2021/07/26 04:19:59;;;;;;;;;;;;;;;26.05;58.69;100698.81;5036522;28;98037;-79
2021/07/26 04:22:25;;;;;;;;;;;;;;;26.16;57.95;100696.72;5028125;28;99028;-79
2021/07/26 04:24:51;;;;;;;;;;;;;;;26.17;57.75;100687.59;5034709;28;96984;-79
2021/07/26 04:27:20;;;;;;;;;;;;;;;26.17;57.44;100687.59;5035208;28;96973;-78
2021/07/26 04:29:48;;;;;;;;;;;;;;;26.35;57.04;100684.88;5036356;28;99301;-79
2021/07/26 04:32:14;;;;;;;;;;;;;;;26.25;57.45;100681.44;5034949;28;98894;-81
2021/07/26 04:34:41;;;;;;;;;;;;;;;26.39;56.71;100680.84;5019526;28;98794;-78
2021/07/26 04:37:07;;;;;;;;;;;;;;;26.41;56.85;100678.84;5037247;28;98720;-77
2021/07/26 04:39:33;;;;;;;;;;;;;;;26.46;57.30;100679.19;5037736;28;97868;-79
2021/07/26 04:41:59;;;;;;;;;;;;;;;26.55;57.52;100689.09;5030614;28;97719;-78
2021/07/26 04:44:26;;;;;;;;;;;;;;;26.57;58.13;100706.06;5023739;28;97675;-78
2021/07/26 04:46:53;;;;;;;;;;;;;;;26.50;58.22;100705.00;5029085;28;97694;-78
2021/07/26 04:49:22;;;;;;;;;;;;;;;26.68;56.54;100701.38;5032520;28;97602;-78
2021/07/26 04:51:49;;;;;;;;;;;;;;;26.53;56.92;100710.06;5046031;28;98449;-78
2021/07/26 04:54:15;;;;;;;;;;;;;;;26.22;57.58;100705.22;5039381;28;97898;-78
2021/07/26 04:56:41;;;;;;;;;;;;;;;26.02;57.92;100701.81;5030555;28;97398;-78
2021/07/26 04:59:08;;;;;;;;;;;;;;;26.37;57.19;100701.84;5031095;28;99336;-79
2021/07/26 05:01:34;;;;;;;;;;;;;;;26.62;56.78;100693.88;5028528;28;99334;-78
2021/07/26 05:04:01;;;;;;;;;;;;;;;26.73;56.44;100694.47;5027922;28;96687;-79
2021/07/26 05:06:28;;;;;;;;;;;;;;;26.85;56.19;100700.47;5034712;28;96946;-77
2021/07/26 05:08:54;;;;;;;;;;;;;;;26.98;55.74;100698.19;5022523;28;98840;-78
2021/07/26 05:11:24;;;;;;;;;;;;;;;27.01;55.76;100700.59;5027477;28;100287;-78
2021/07/26 05:13:50;;;;;;;;;;;;;;;27.04;55.67;100696.72;5034470;28;97594;-79
2021/07/26 05:16:16;;;;;;;;;;;;;;;27.12;55.58;100686.75;5028718;28;96895;-77
2021/07/26 05:18:42;;;;;;;;;;;;;;;27.14;55.19;100687.44;5022871;28;98842;-77
2021/07/26 05:21:10;;;;;;;;;;;;;;;27.22;54.91;100694.78;5028452;28;99191;-78
2021/07/26 05:23:36;;;;;;;;;;;;;;;27.12;55.42;100686.75;5023330;28;96764;-79
2021/07/26 05:26:03;;;;;;;;;;;;;;;27.20;55.78;100686.78;5022242;28;97265;-77
2021/07/26 05:28:29;;;;;;;;;;;;;;;27.22;55.22;100689.34;5034576;28;99001;-78
2021/07/26 05:30:55;;;;;;;;;;;;;;;27.36;54.94;100692.31;5031461;28;98859;-77
2021/07/26 05:33:21;;;;;;;;;;;;;;;27.46;54.31;100683.16;5024981;28;96806;-78
2021/07/26 05:35:48;;;;;;;;;;;;;;;27.58;54.58;100690.00;5035604;28;96810;-79
2021/07/26 05:38:15;;;;;;;;;;;;;;;27.75;54.04;100681.75;5034716;28;98804;-77
2021/07/26 05:40:42;;;;;;;;;;;;;;;27.64;54.46;100689.34;5038995;28;97928;-79
2021/07/26 05:43:10;;;;;;;;;;;;;;;27.54;55.11;100681.34;5029150;28;97757;-77
2021/07/26 05:45:37;;;;;;;;;;;;;;;27.53;54.55;100681.50;5031909;28;96825;-78
2021/07/26 05:48:03;;;;;;;;;;;;;;;27.33;55.46;100686.34;5033105;28;98970;-78
2021/07/26 05:50:30;;;;;;;;;;;;;;;27.21;55.55;100688.50;5031049;28;101244;-78
2021/07/26 05:52:57;;;;;;;;;;;;;;;27.21;55.56;100691.22;5026852;28;98409;-79
2021/07/26 05:55:26;;;;;;;;;;;;;;;27.22;55.64;100700.19;5029975;28;97051;-77
2021/07/26 05:57:52;;;;;;;;;;;;;;;27.15;56.57;100693.72;5021853;28;98983;-78
2021/07/26 06:00:34;;;;;;;;;;;;;;;27.25;55.88;100689.00;5028585;28;98857;-79
2021/07/26 06:03:00;;;;;;;;;;;;;;;27.22;56.79;100679.34;5027844;28;97220;-79
2021/07/26 06:05:27;;;;;;;;;;;;;;;27.22;57.04;100690.19;5035441;28;96860;-78
2021/07/26 06:07:54;;;;;;;;;;;;;;;26.63;59.18;100691.03;5036658;28;98367;-80
2021/07/26 06:10:20;;;;;;;;;;;;;;;26.73;59.41;100690.91;5039810;28;99190;-79
2021/07/26 06:12:48;;;;;;;;;;;;;;;26.92;58.83;100699.69;5038201;28;96855;-82
2021/07/26 06:15:16;;;;;;;;;;;;;;;27.04;58.85;100697.59;5031336;27;96984;-80
2021/07/26 06:17:42;;;;;;;;;;;;;;;27.32;58.25;100699.03;5048067;28;97038;-83
2021/07/26 06:20:09;;;;;;;;;;;;;;;27.46;57.70;100700.28;5045458;28;99379;-81
2021/07/26 06:22:36;;;;;;;;;;;;;;;27.71;56.64;100698.53;5043819;28;96627;-82
2021/07/26 06:25:09;;;;;;;;;;;;;;;28.60;54.02;100697.78;5023928;28;96679;-85
2021/07/26 06:27:35;;;;;;;;;;;;;;;28.36;54.51;100701.34;5038817;28;101385;-82
2021/07/26 06:30:04;;;;;;;;;;;;;;;28.37;53.98;100697.59;5007417;28;98529;-83
2021/07/26 06:32:31;;;;;;;;;;;;;;;28.43;54.30;100695.06;5036620;28;96877;-83
2021/07/26 06:34:58;;;;;;;;;;;;;;;28.55;53.66;100696.41;5039819;28;96869;-83
2021/07/26 06:37:24;;;;;;;;;;;;;;;28.46;53.44;100702.03;5027433;28;101175;-82
2021/07/26 06:39:51;;;;;;;;;;;;;;;28.50;52.74;100693.34;5032744;27;98853;-83
2021/07/26 06:42:18;;;;;;;;;;;;;;;28.63;52.79;100700.13;5036927;28;97204;-84
2021/07/26 06:44:44;;;;;;;;;;;;;;;28.47;52.54;100696.44;5043064;28;96841;-83
2021/07/26 06:47:12;;;;;;;;;;;;;;;28.75;52.81;100713.22;5038432;28;99446;-83
2021/07/26 06:49:39;;;;;;;;;;;;;;;28.86;52.67;100712.88;5039383;28;98837;-82
2021/07/26 06:52:05;;;;;;;;;;;;;;;28.88;52.85;100708.09;5018652;28;98182;-83
2021/07/26 06:54:32;;;;;;;;;;;;;;;28.85;52.36;100711.19;5025127;28;96934;-84
2021/07/26 06:56:58;;;;;;;;;;;;;;;28.80;51.63;100705.41;5042437;28;100398;-83
2021/07/26 06:59:24;;;;;;;;;;;;;;;29.06;51.33;100712.50;5041338;28;100083;-84
2021/07/26 07:01:51;;;;;;;;;;;;;;;29.19;51.67;100710.06;5029504;28;98767;-84
2021/07/26 07:04:18;;;;;;;;;;;;;;;29.24;51.19;100710.38;5039449;28;96887;-84
2021/07/26 07:06:45;;;;;;;;;;;;;;;29.91;48.75;100710.75;5026455;28;100711;-84
2021/07/26 07:09:11;;;;;;;;;;;;;;;30.46;45.99;100710.50;5037038;28;101776;-81
2021/07/26 07:11:37;;;;;;;;;;;;;;;30.81;46.24;100698.97;5027592;28;96780;-83
2021/07/26 07:14:04;;;;;;;;;;;;;;;31.37;44.77;100709.44;5040070;28;96769;-82
2021/07/26 07:16:30;;;;;;;;;;;;;;;31.12;43.96;100712.44;5036905;28;98866;-82
2021/07/26 07:18:57;;;;;;;;;;;;;;;30.83;45.15;100715.16;5028092;28;98016;-82
2021/07/26 07:21:26;;;;;;;;;;;;;;;30.78;45.55;100725.78;5035749;28;97301;-83
2021/07/26 07:23:52;;;;;;;;;;;;;;;30.50;46.71;100725.53;5038987;28;96873;-82
2021/07/26 07:26:19;;;;;;;;;;;;;;;30.39;47.42;100715.03;5026726;28;98301;-83
2021/07/26 07:28:46;;;;;;;;;;;;;;;30.43;47.48;100713.63;5029186;28;100831;-83
2021/07/26 07:31:13;;;;;;;;;;;;;;;30.87;44.96;100719.19;5029539;28;97037;-83
2021/07/26 07:33:39;;;;;;;;;;;;;;;30.79;46.21;100717.38;5030358;28;97246;-84
2021/07/26 07:36:06;;;;;;;;;;;;;;;30.94;45.22;100724.75;5029192;28;98917;-83
2021/07/26 07:38:34;;;;;;;;;;;;;;;30.84;45.20;100725.03;5024734;28;96904;-83
2021/07/26 07:41:02;;;;;;;;;;;;;;;30.81;45.54;100725.38;5030438;28;96791;-84
2021/07/26 07:43:29;;;;;;;;;;;;;;;30.67;45.72;100724.31;5029512;28;97353;-84
2021/07/26 07:45:58;;;;;;;;;;;;;;;30.69;44.90;100726.88;5034744;28;99970;-83
2021/07/26 07:48:25;;;;;;;;;;;;;;;30.95;45.06;100732.75;5024723;28;101375;-81
2021/07/26 07:50:51;;;;;;;;;;;;;;;30.95;43.74;100727.28;5032822;28;96618;-81
2021/07/26 07:53:18;;;;;;;;;;;;;;;31.28;43.55;100734.09;5041984;28;96934;-82
2021/07/26 07:55:45;;;;;;;;;;;;;;;31.21;43.94;100735.91;5040283;27;98991;-79
2021/07/26 07:58:12;;;;;;;;;;;;;;;31.27;44.22;100726.94;5048893;28;99545;-81
2021/07/26 08:00:39;;;;;;;;;;;;;;;31.32;43.69;100728.25;5036790;28;97191;-82
2021/07/26 08:03:05;;;;;;;;;;;;;;;31.02;43.79;100728.25;5029846;28;98855;-82
2021/07/26 08:05:32;;;;;;;;;;;;;;;31.28;44.22;100731.38;5037447;28;99993;-82
2021/07/26 08:07:58;;;;;;;;;;;;;;;31.38;42.33;100728.34;5034070;28;99669;-83
2021/07/26 08:10:25;;;;;;;;;;;;;;;31.48;42.41;100728.06;5048791;28;97260;-82
2021/07/26 08:12:53;;;;;;;;;;;;;;;31.64;41.61;100727.88;5051902;28;96859;-82
2021/07/26 08:15:21;;;;;;;;;;;;;;;31.53;41.67;100737.38;5028141;28;97679;-83
2021/07/26 08:17:48;;;;;;;;;;;;;;;31.53;39.76;100725.59;5033722;28;100712;-83
2021/07/26 08:20:15;;;;;;;;;;;;;;;31.60;41.44;100741.06;5035070;28;96841;-82
2021/07/26 08:22:42;;;;;;;;;;;;;;;31.44;41.64;100732.22;5038294;28;98370;-83
2021/07/26 08:25:11;;;;;;;;;;;;;;;31.13;43.50;100741.44;5037995;28;96924;-82
2021/07/26 08:27:47;;;;;;;;;;;;;;;30.98;43.69;100743.31;5028937;28;99510;-82
2021/07/26 08:30:15;;;;;;;;;;;;;;;31.07;43.57;100736.75;5037219;28;96847;-82
2021/07/26 08:32:41;;;;;;;;;;;;;;;31.06;43.21;100735.03;5036725;28;96968;-83
2021/07/26 08:35:08;;;;;;;;;;;;;;;31.25;43.29;100739.94;5030135;28;98091;-83
2021/07/26 08:37:34;;;;;;;;;;;;;;;31.44;42.21;100743.16;5034859;28;99178;-82
2021/07/26 08:40:02;;;;;;;;;;;;;;;31.86;40.84;100743.28;5035805;28;96813;-81
2021/07/26 08:42:28;;;;;;;;;;;;;;;31.97;40.33;100745.50;5009039;28;97189;-83
2021/07/26 08:44:55;;;;;;;;;;;;;;;31.91;40.64;100757.19;5036942;28;97903;-81
2021/07/26 08:47:23;;;;;;;;;;;;;;;31.86;41.09;100745.16;5033234;28;98816;-84
2021/07/26 08:49:50;;;;;;;;;;;;;;;32.25;40.74;100742.88;5031407;28;97177;-83
2021/07/26 08:52:17;;;;;;;;;;;;;;;32.47;39.50;100745.63;5033127;28;96843;-83
2021/07/26 08:54:44;;;;;;;;;;;;;;;32.11;40.16;100740.16;5032836;27;98395;-83
2021/07/26 08:57:10;;;;;;;;;;;;;;;31.87;40.75;100739.50;5033149;28;98372;-83
2021/07/26 08:59:39;;;;;;;;;;;;;;;32.11;40.70;100743.75;5003032;28;107382;-84
2021/07/26 09:02:06;;;;;;;;;;;;;;;31.68;40.88;100745.59;5032579;28;97433;-83
2021/07/26 09:04:33;;;;;;;;;;;;;;;31.76;40.40;100744.63;5026997;27;98194;-83
2021/07/26 09:07:05;;;;;;;;;;;;;;;31.75;41.25;100743.78;5026131;28;99172;-85
2021/07/26 09:09:44;;;;;;;;;;;;;;;31.61;40.79;100742.78;5026029;28;96819;-83
2021/07/26 09:12:11;;;;;;;;;;;;;;;31.60;41.23;100740.22;5035757;28;96926;-85
2021/07/26 09:14:38;;;;;;;;;;;;;;;31.38;42.06;100739.25;5043594;27;98981;-80
2021/07/26 09:17:06;;;;;;;;;;;;;;;31.47;41.17;100738.13;5029274;28;98915;-80
2021/07/26 09:19:47;;;;;;;;;;;;;;;31.54;40.91;100738.22;5030693;28;97005;-78
2021/07/26 09:22:26;;;;;;;;;;;;;;;31.61;40.99;100736.47;5034842;28;96901;-78
2021/07/26 09:25:10;;;;;;;;;;;;;;;31.75;41.81;100735.59;5025289;28;99656;-79
2021/07/26 09:27:37;;;;;;;;;;;;;;;31.89;40.93;100742.91;5031759;28;99206;-80
2021/07/26 09:30:13;;;;;;;;;;;;;;;31.80;40.85;100740.47;5035602;28;96714;-80
2021/07/26 09:32:39;;;;;;;;;;;;;;;31.47;42.01;100750.94;5034107;28;97015;-79
2021/07/26 09:35:07;;;;;;;;;;;;;;;31.62;41.24;100751.81;5029073;28;99202;-79
2021/07/26 09:37:34;;;;;;;;;;;;;;;31.43;42.40;100747.75;5038351;28;99356;-78
2021/07/26 09:40:19;;;;;;;;;;;;;;;31.50;41.61;100743.22;5026386;28;96791;-77
2021/07/26 09:42:45;;;;;;;;;;;;;;;31.51;42.16;100741.31;5029512;28;97345;-79
2021/07/26 09:45:18;;;;;;;;;;;;;;;32.07;40.85;100737.00;5027414;28;98112;-80
2021/07/26 09:47:44;;;;;;;;;;;;;;;32.13;40.32;100735.38;5024131;28;99312;-79
2021/07/26 09:50:11;;;;;;;;;;;;;;;31.46;41.25;100735.59;5030024;28;96856;-79
2021/07/26 09:52:39;;;;;;;;;;;;;;;31.70;40.77;100740.78;5024705;28;97132;-79
2021/07/26 09:55:05;;;;;;;;;;;;;;;32.26;39.57;100732.78;5031628;28;102439;-80
2021/07/26 09:57:32;;;;;;;;;;;;;;;32.32;39.39;100737.47;5017531;28;98733;-80
2021/07/26 10:00:01;;;;;;;;;;;;;;;32.38;38.55;100736.69;5029069;28;97025;-80
2021/07/26 10:02:28;;;;;;;;;;;;;;;32.35;37.70;100734.38;5026197;28;96853;-79
2021/07/26 10:04:55;;;;;;;;;;;;;;;32.41;37.63;100739.06;5027387;28;99072;-79
2021/07/26 10:07:22;;;;;;;;;;;;;;;31.97;37.78;100737.28;5026696;28;100997;-78
2021/07/26 10:09:49;;;;;;;;;;;;;;;32.47;37.58;100748.34;5031572;28;96886;-79
2021/07/26 10:12:17;;;;;;;;;;;;;;;32.65;38.14;100749.56;5029945;27;97086;-79
2021/07/26 10:14:45;;;;;;;;;;;;;;;32.42;38.23;100746.22;5030922;27;98895;-79
2021/07/26 10:17:12;;;;;;;;;;;;;;;32.16;36.67;100738.59;5030054;28;99166;-79
2021/07/26 10:19:38;;;;;;;;;;;;;;;32.42;36.24;100743.47;5032072;28;97030;-80
2021/07/26 10:22:06;;;;;;;;;;;;;;;32.52;36.03;100740.41;5035870;28;97507;-79
2021/07/26 10:24:35;;;;;;;;;;;;;;;32.66;36.25;100744.94;5031722;28;98917;-80
2021/07/26 10:27:03;;;;;;;;;;;;;;;32.83;36.34;100747.22;5030743;28;102420;-80
2021/07/26 10:29:48;;;;;;;;;;;;;;;32.75;35.17;100741.06;5028299;28;98652;-80
2021/07/26 10:32:29;;;;;;;;;;;;;;;32.80;35.94;100739.41;5037988;28;96907;-79
2021/07/26 10:34:56;;;;;;;;;;;;;;;32.84;36.84;100739.84;5030083;28;98073;-80
2021/07/26 10:37:37;;;;;;;;;;;;;;;32.86;36.11;100724.09;5030006;28;98838;-79
2021/07/26 10:40:19;;;;;;;;;;;;;;;32.49;37.18;100721.66;5036317;28;96872;-79
2021/07/26 10:42:47;;;;;;;;;;;;;;;32.43;36.35;100717.81;5035795;28;97158;-79
2021/07/26 10:45:28;;;;;;;;;;;;;;;32.28;36.15;100719.78;5029449;28;99021;-80
2021/07/26 10:48:09;;;;;;;;;;;;;;;32.36;35.73;100717.75;5036319;28;99037;-78
2021/07/26 10:50:39;;;;;;;;;;;;;;;32.69;35.31;100717.22;5034504;28;97214;-77
2021/07/26 10:53:05;;;;;;;;;;;;;;;32.70;34.47;100707.97;5037125;28;96844;-77
2021/07/26 10:55:56;;;;;;;;;;;;;;;32.91;34.39;100704.31;5036590;28;101286;-80
2021/07/26 10:58:46;;;;;;;;;;;;;;;32.56;35.40;100698.75;5030917;28;101026;-78
2021/07/26 11:01:31;;;;;;;;;;;;;;;32.53;36.26;100704.66;5014038;28;97420;-79
2021/07/26 11:03:59;;;;;;;;;;;;;;;32.79;36.17;100704.88;5034742;28;97708;-79
2021/07/26 11:06:40;;;;;;;;;;;;;;;32.63;35.92;100702.41;5026825;28;99061;-79
2021/07/26 11:09:21;;;;;;;;;;;;;;;32.66;36.44;100699.28;5018417;28;98542;-79
2021/07/26 11:11:48;;;;;;;;;;;;;;;33.15;35.75;100701.09;5032043;28;97702;-79
2021/07/26 11:14:14;;;;;;;;;;;;;;;33.56;35.45;100701.09;5029914;28;97340;-78
2021/07/26 11:17:02;;;;;;;;;;;;;;;33.54;35.29;100686.78;5034111;28;98881;-80
2021/07/26 11:19:36;;;;;;;;;;;;;;;33.60;34.32;100692.28;5036139;28;99671;-80
2021/07/26 11:22:04;;;;;;;;;;;;;;;33.88;32.98;100688.59;5026501;28;96851;-79
2021/07/26 11:24:46;;;;;;;;;;;;;;;34.19;32.88;100688.03;5033716;28;97327;-79
2021/07/26 11:27:14;;;;;;;;;;;;;;;34.36;32.54;100683.84;5032571;27;102558;-79
2021/07/26 11:29:40;;;;;;;;;;;;;;;34.60;32.52;100685.09;5034349;28;98824;-77
2021/07/26 11:32:06;;;;;;;;;;;;;;;34.69;32.39;100679.19;5035499;28;97928;-78
2021/07/26 11:34:34;;;;;;;;;;;;;;;34.83;31.78;100669.06;5027261;28;96875;-79
2021/07/26 11:37:07;;;;;;;;;;;;;;;34.10;30.58;100672.81;5037355;27;100645;-79
2021/07/26 11:39:47;;;;;;;;;;;;;;;34.45;29.64;100665.28;5034999;28;98846;-79
2021/07/26 11:42:15;;;;;;;;;;;;;;;34.30;29.45;100663.59;5027630;28;96777;-80
2021/07/26 11:44:43;;;;;;;;;;;;;;;34.80;29.10;100661.22;5035523;28;96868;-79
2021/07/26 11:47:09;;;;;;;;;;;;;;;34.67;30.35;100675.78;5033913;28;99209;-80
2021/07/26 11:49:36;;;;;;;;;;;;;;;34.95;30.51;100669.22;5036121;28;101654;-80
2021/07/26 11:52:07;;;;;;;;;;;;;;;34.89;30.85;100678.31;5034311;28;96890;-79
2021/07/26 11:54:34;;;;;;;;;;;;;;;34.74;30.85;100679.41;5024256;28;96830;-78
2021/07/26 11:57:10;;;;;;;;;;;;;;;34.26;31.20;100678.78;5035734;28;101815;-78
2021/07/26 11:59:37;;;;;;;;;;;;;;;34.06;32.13;100682.53;5026242;28;98740;-79
2021/07/26 12:02:06;;;;;;;;;;;;;;;33.56;32.70;100687.41;5035286;28;97057;-78
2021/07/26 12:04:32;;;;;;;;;;;;;;;33.39;34.93;100686.94;5037983;28;97963;-79
2021/07/26 12:07:00;;;;;;;;;;;;;;;32.80;36.72;100695.63;5036994;28;101270;-80
2021/07/26 12:09:27;;;;;;;;;;;;;;;32.45;37.55;100685.66;5034930;28;99203;-80
2021/07/26 12:11:55;;;;;;;;;;;;;;;32.67;37.86;100681.88;5033351;28;96879;-80
2021/07/26 12:14:22;;;;;;;;;;;;;;;32.23;38.85;100678.53;5018760;28;98745;-79
2021/07/26 12:16:56;;;;;;;;;;;;;;;32.41;38.72;100687.94;5028439;28;98945;-79
2021/07/26 12:19:22;;;;;;;;;;;;;;;31.85;39.69;100680.63;5023671;28;97756;-79
2021/07/26 12:21:48;;;;;;;;;;;;;;;32.14;39.64;100685.16;5021535;28;96923;-80
2021/07/26 12:24:15;;;;;;;;;;;;;;;32.33;40.01;100687.22;5027751;28;96919;-80
2021/07/26 12:26:56;;;;;;;;;;;;;;;31.61;42.37;100687.31;5032435;28;101564;-79
2021/07/26 12:29:26;;;;;;;;;;;;;;;32.12;42.38;100679.84;5029680;28;99053;-78
2021/07/26 12:32:02;;;;;;;;;;;;;;;32.14;42.63;100675.06;5035180;28;96946;-78
2021/07/26 12:34:28;;;;;;;;;;;;;;;32.09;42.65;100671.22;5032538;28;97023;-79
2021/07/26 12:36:57;;;;;;;;;;;;;;;31.50;43.77;100666.78;5032420;28;99494;-78
2021/07/26 12:39:36;;;;;;;;;;;;;;;32.07;42.52;100660.47;5032443;28;99212;-78